Shelby County Airport
KEET : now visible

Airfield :











YOU CAN JOIN US ON...

 
LOGIN :

Register | Disclaimer

   EN    FR    IT 

 









Legend :    VFR   Marginal VFR   IFR   Intensive IFR   Very Intensive IFR
Visi :
Ceiling :
>= 8 km
>= 3000ft
5 to 8 km
1000 to 3000 ft
1500m to 5 km
500 to 1000 ft
800 to 1500m
200 to 500 ft
< 800m
< 200 ft
Symbols :   Thunderstorms  Fog  Heavy snow  Heavy precipitations  Wind > 20 kt






- Airport Elevation : 586 ft


KEET - Shelby County

CURRENT METAR :
  • 260553Z AUTO 20011G17KT 9SM BKN017 OVC022 21/19 A2978 RMK AO2 SLP078 60002 T02110189 10217 20200 402330139 53001

EXPIRED METARs :
  • 260453Z AUTO 20013G22KT 9SM OVC018 21/18 A2976 RMK AO2 LTG DSNT N RAB22E32 SLP073 P0000 T02110183

TAF KEET
Valid from the 26 at 06:00 until the 27 at 06:00 UTC


260539Z 2606/2706 21013G22KT P6SM OVC017
FM260800 23012G25KT 5SM TSRA BR OVC013CB
FM261000 25010KT 6SM SHRA BR VCTS BKN040CB
FM261200 27008KT P6SM BKN090
KZTL FIR / North America



MET'MAP, your aeronautical weather chart ! - Copyright ORBIFLY December 2007 - Disclaimer

ORBIFLY MET'MAP TEAM :

Programming & Development : Alexandra Zaïnal
Concept & original design : Baudouin d'Aumeries
Assistance for programming : Marc-Olivier Méhu
Technical & hardware support : Manuel Goepfert

Contact : metmap@orbifly.com




SOURCES & CREDITS :

   NOAA       Earth
Advisory